Time;durP1;ratioP1;P1;durP2;ratioP2;P2;SDS_P1;SDS_P2;PMS_P1;PMS_P2;Temp;Humidity;BMP_temperature;BMP_pressure;BME280_temperature;BME280_humidity;BME280_pressure;Samples;Min_cycle;Max_cycle;Signal;HPM_P1;HPM_P2
2024/04/03 00:01:36;;;;;;;0.40;0.40;;;4.20;99.90;;;4.53;70.45;96474.00;2331798;57;26189;-76
2024/04/03 00:04:03;;;;;;;1.03;0.40;;;4.30;99.90;;;4.50;70.98;96470.00;2332010;57;26072;-75
2024/04/03 00:06:29;;;;;;;0.93;0.60;;;4.50;99.90;;;4.65;70.83;96472.00;2331989;57;26195;-77
2024/04/03 00:08:56;;;;;;;1.20;0.70;;;4.40;99.90;;;4.67;70.21;96467.00;2332444;57;26145;-76
2024/04/03 00:11:22;;;;;;;3.30;0.50;;;4.20;99.90;;;4.40;70.97;96463.00;2332053;57;26188;-76
2024/04/03 00:13:49;;;;;;;0.87;0.50;;;4.20;99.90;;;4.38;71.71;96466.00;2331919;57;26111;-74
2024/04/03 00:16:15;;;;;;;0.40;0.40;;;4.10;99.90;;;4.41;71.25;96473.00;2331764;57;26153;-75
2024/04/03 00:18:42;;;;;;;0.60;0.60;;;4.10;99.90;;;4.40;71.21;96480.00;2331252;57;26189;-76
2024/04/03 00:21:08;;;;;;;2.07;0.67;;;4.00;99.90;;;4.30;71.88;96477.00;2331869;57;26720;-75
2024/04/03 00:23:35;;;;;;;0.40;0.40;;;4.10;99.90;;;4.21;72.85;96484.00;2332022;57;26150;-75
2024/04/03 00:26:02;;;;;;;0.40;0.37;;;4.00;99.90;;;4.10;72.88;96475.00;2332168;57;26643;-76
2024/04/03 00:28:30;;;;;;;0.30;0.23;;;4.00;99.90;;;3.99;73.42;96477.00;2331959;57;26198;-75
2024/04/03 00:31:01;;;;;;;0.50;0.50;;;4.00;99.90;;;3.93;74.03;96474.00;2331969;57;26609;-76
2024/04/03 00:33:28;;;;;;;0.30;0.30;;;4.00;99.90;;;4.01;73.33;96467.00;2331939;57;26071;-76
2024/04/03 00:35:59;;;;;;;0.27;0.27;;;3.90;99.90;;;4.06;72.95;96470.00;2332229;57;26197;-74
2024/04/03 00:38:27;;;;;;;0.83;0.40;;;4.00;99.90;;;4.27;72.73;96467.00;2331809;57;26095;-75
2024/04/03 00:41:00;;;;;;;0.70;0.70;;;4.00;99.90;;;4.16;72.05;96468.00;2331721;57;26875;-76
2024/04/03 00:43:28;;;;;;;1.30;0.40;;;3.70;99.90;;;4.06;71.98;96465.00;2332014;57;26186;-74
2024/04/03 00:45:58;;;;;;;0.63;0.50;;;3.70;99.90;;;4.02;71.76;96464.00;2331964;57;26714;-76
2024/04/03 00:48:26;;;;;;;0.70;0.40;;;3.80;99.90;;;3.97;72.24;96465.00;2332177;57;26126;-75
2024/04/03 00:50:55;;;;;;;0.50;0.30;;;3.70;99.90;;;3.80;71.99;96466.00;2331784;57;26190;-77
2024/04/03 00:53:24;;;;;;;1.17;0.50;;;3.60;99.90;;;3.67;73.54;96461.00;2331997;57;26565;-76
2024/04/03 00:55:51;;;;;;;0.30;0.30;;;3.60;99.90;;;3.72;73.76;96460.00;2331833;57;26130;-78
2024/04/03 00:58:17;;;;;;;0.20;0.20;;;3.80;99.90;;;3.98;73.73;96460.00;2331776;57;26119;-76
2024/04/03 01:00:44;;;;;;;3.70;0.43;;;4.10;99.90;;;4.30;73.32;96456.00;2331787;57;26535;-77
2024/04/03 01:03:11;;;;;;;0.20;0.20;;;4.40;99.90;;;4.57;71.79;96463.00;2331346;57;26564;-77
2024/04/03 01:05:37;;;;;;;0.73;0.50;;;4.70;99.90;;;4.70;71.57;96461.00;2331219;57;26133;-77
2024/04/03 01:08:04;;;;;;;1.73;0.40;;;4.40;99.90;;;4.59;69.94;96465.00;2331404;57;26190;-78
2024/04/03 01:10:31;;;;;;;1.13;0.30;;;4.00;99.90;;;4.22;69.33;96470.00;2331476;57;26640;-77
2024/04/03 01:13:01;;;;;;;3.30;0.40;;;3.90;99.90;;;4.13;70.21;96468.00;2331340;57;26648;-77
2024/04/03 01:15:30;;;;;;;0.60;0.60;;;3.90;99.90;;;4.01;70.67;96473.00;2330921;57;26090;-78
2024/04/03 01:17:57;;;;;;;0.20;0.20;;;3.80;99.90;;;3.97;71.55;96467.00;2331557;57;26640;-77
2024/04/03 01:20:24;;;;;;;1.07;0.50;;;3.90;99.90;;;3.96;72.43;96470.00;2332035;57;27020;-79
2024/04/03 01:22:51;;;;;;;0.30;0.30;;;4.00;99.90;;;4.13;72.17;96463.00;2331826;57;26119;-76
2024/04/03 01:25:18;;;;;;;0.37;0.30;;;4.20;99.90;;;4.34;72.15;96458.00;2331804;57;26154;-77
2024/04/03 01:27:44;;;;;;;0.43;0.40;;;4.40;99.90;;;4.58;71.76;96459.00;2331958;57;26531;-77
2024/04/03 01:30:11;;;;;;;0.30;0.30;;;4.60;99.90;;;4.72;71.36;96465.00;2331765;57;26738;-79
2024/04/03 01:32:38;;;;;;;0.60;0.40;;;4.70;99.90;;;4.76;71.11;96462.00;2331306;57;26539;-78
2024/04/03 01:35:05;;;;;;;0.23;0.20;;;4.70;99.90;;;4.79;69.57;96465.00;2331678;57;26146;-78
2024/04/03 01:37:32;;;;;;;0.23;0.23;;;4.60;99.90;;;4.69;70.16;96450.00;2331640;57;26567;-79
2024/04/03 01:39:58;;;;;;;1.83;0.70;;;4.60;99.90;;;4.76;69.91;96450.00;2332026;57;26102;-77
2024/04/03 01:42:25;;;;;;;0.87;0.40;;;4.40;99.90;;;4.48;69.12;96453.00;2331803;57;27016;-78
2024/04/03 01:44:52;;;;;;;0.37;0.33;;;4.00;99.90;;;4.09;69.64;96442.00;2331877;57;26099;-78
2024/04/03 01:47:18;;;;;;;0.30;0.30;;;3.80;99.90;;;4.09;70.25;96433.00;2331899;57;26667;-77
2024/04/03 01:49:45;;;;;;;0.37;0.27;;;4.00;99.90;;;4.22;70.72;96427.00;2331767;57;27068;-78
2024/04/03 01:52:11;;;;;;;0.20;0.20;;;3.80;99.90;;;3.98;70.39;96434.00;2332056;57;26130;-77
2024/04/03 01:54:38;;;;;;;3.97;0.87;;;3.70;99.90;;;4.06;70.32;96420.00;2332210;57;26623;-78
2024/04/03 01:57:04;;;;;;;0.23;0.23;;;3.80;99.90;;;4.06;71.14;96413.00;2332274;57;26663;-78
2024/04/03 01:59:31;;;;;;;0.60;0.33;;;4.00;99.90;;;4.10;71.73;96412.00;2331659;57;26722;-77
2024/04/03 02:01:58;;;;;;;0.30;0.30;;;4.00;99.90;;;4.09;70.97;96407.00;2331951;57;26797;-77
2024/04/03 02:04:25;;;;;;;0.13;0.13;;;3.90;99.90;;;3.97;71.26;96401.00;2331638;57;26100;-77
2024/04/03 02:06:51;;;;;;;0.30;0.30;;;3.70;99.90;;;3.96;70.96;96407.00;2331554;57;26490;-77
2024/04/03 02:09:18;;;;;;;0.30;0.30;;;3.70;99.90;;;3.84;72.01;96401.00;2331605;57;26185;-79
2024/04/03 02:11:44;;;;;;;0.37;0.37;;;4.00;99.90;;;4.18;72.39;96398.00;2331745;57;26583;-79
2024/04/03 02:14:12;;;;;;;1.10;0.40;;;4.30;99.90;;;4.24;72.61;96399.00;2331995;57;26982;-77
2024/04/03 02:16:44;;;;;;;1.20;0.33;;;4.40;99.90;;;4.35;71.93;96395.00;2331439;57;26134;-78
2024/04/03 02:19:10;;;;;;;1.13;0.50;;;4.50;99.90;;;4.44;71.36;96400.00;2331876;57;27744;-77
2024/04/03 02:21:38;;;;;;;1.27;0.50;;;4.40;99.90;;;4.52;71.01;96406.00;2332022;57;26099;-77
2024/04/03 02:24:05;;;;;;;0.83;0.40;;;4.40;99.90;;;4.44;70.95;96404.00;2331226;57;26198;-78
2024/04/03 02:26:45;;;;;;;0.10;0.10;;;3.80;99.90;;;4.07;69.04;96404.00;2331360;57;26207;-78
2024/04/03 02:29:14;;;;;;;0.50;0.30;;;3.60;99.90;;;3.69;69.20;96401.00;2331748;57;26608;-77
2024/04/03 02:31:41;;;;;;;1.10;0.30;;;3.20;99.90;;;3.42;69.61;96410.00;2331512;57;26595;-78
2024/04/03 02:34:08;;;;;;;0.33;0.23;;;3.20;99.90;;;3.39;70.92;96411.00;2331512;57;26079;-77
2024/04/03 02:36:35;;;;;;;0.57;0.40;;;3.20;99.90;;;3.37;72.07;96405.00;2331632;57;26167;-76
2024/04/03 02:39:01;;;;;;;0.33;0.27;;;3.30;99.90;;;3.42;72.07;96405.00;2331407;57;26632;-76
2024/04/03 02:41:28;;;;;;;0.37;0.33;;;3.20;99.90;;;3.29;71.57;96406.00;2331109;57;26197;-75
2024/04/03 02:43:54;;;;;;;0.40;0.40;;;3.00;99.90;;;3.18;72.81;96402.00;2330913;57;26150;-76
2024/04/03 02:46:22;;;;;;;0.40;0.37;;;2.90;99.90;;;3.09;73.65;96408.00;2331456;57;26170;-74
2024/04/03 02:48:49;;;;;;;0.57;0.37;;;2.90;99.90;;;3.20;73.71;96404.00;2331250;57;26198;-75
2024/04/03 02:51:16;;;;;;;0.20;0.20;;;2.90;99.90;;;3.13;73.96;96403.00;2331313;57;26253;-75
2024/04/03 02:53:42;;;;;;;0.20;0.20;;;3.00;99.90;;;3.21;74.55;96398.00;2331059;57;26286;-75
2024/04/03 02:56:10;;;;;;;1.93;0.40;;;3.30;99.90;;;3.27;75.21;96399.00;2330955;57;26194;-74
2024/04/03 02:58:37;;;;;;;0.13;0.13;;;3.30;99.90;;;3.41;74.17;96399.00;2330507;57;26261;-74
2024/04/03 03:01:07;;;;;;;0.40;0.40;;;3.10;99.90;;;3.32;73.43;96399.00;2331308;57;26484;-75
2024/04/03 03:03:34;;;;;;;0.30;0.30;;;3.00;99.90;;;3.29;72.57;96400.00;2331161;57;26542;-74
2024/04/03 03:06:06;;;;;;;0.27;0.27;;;2.80;99.90;;;2.99;72.85;96392.00;2331416;57;26131;-74
2024/04/03 03:08:34;;;;;;;0.47;0.40;;;2.80;99.90;;;2.88;73.01;96399.00;2331255;57;26169;-74
2024/04/03 03:11:02;;;;;;;0.63;0.30;;;2.80;99.90;;;2.97;73.34;96397.00;2331871;57;26554;-75
2024/04/03 03:13:30;;;;;;;0.40;0.20;;;2.70;99.90;;;2.99;73.02;96408.00;2331925;57;26123;-74
2024/04/03 03:16:00;;;;;;;0.30;0.30;;;2.80;99.90;;;2.97;73.02;96407.00;2331640;57;26126;-75
2024/04/03 03:18:29;;;;;;;1.20;0.50;;;2.80;99.90;;;2.74;74.60;96404.00;2331248;57;26282;-76
2024/04/03 03:20:56;;;;;;;1.50;0.50;;;2.80;99.90;;;2.70;75.01;96396.00;2331349;57;26111;-75
2024/04/03 03:23:23;;;;;;;0.30;0.30;;;2.80;99.90;;;2.88;74.94;96398.00;2331374;57;26181;-75
2024/04/03 03:25:51;;;;;;;0.37;0.37;;;2.90;99.90;;;2.96;72.85;96395.00;2331374;57;26174;-75
2024/04/03 03:28:20;;;;;;;0.40;0.40;;;2.80;99.90;;;2.81;70.71;96407.00;2331212;57;26603;-75
2024/04/03 03:30:48;;;;;;;1.33;0.37;;;2.50;99.90;;;2.49;72.59;96402.00;2331578;57;26079;-76
2024/04/03 03:33:15;;;;;;;0.20;0.20;;;2.60;99.90;;;2.56;73.74;96396.00;2331776;57;26656;-74
2024/04/03 03:35:55;;;;;;;0.37;0.37;;;2.60;99.90;;;2.71;73.44;96394.00;2331805;57;26575;-75
2024/04/03 03:38:21;;;;;;;0.20;0.20;;;2.60;99.90;;;2.67;73.24;96385.00;2331269;57;26146;-73
2024/04/03 03:40:49;;;;;;;0.93;0.30;;;2.50;99.90;;;2.62;72.60;96389.00;2331887;57;26158;-76
2024/04/03 03:43:15;;;;;;;0.10;0.10;;;2.20;99.90;;;2.48;72.83;96389.00;2330686;57;26091;-74
2024/04/03 03:45:48;;;;;;;0.17;0.17;;;2.20;99.90;;;2.48;72.62;96393.00;2331111;57;26091;-76
2024/04/03 03:48:17;;;;;;;0.30;0.30;;;2.20;99.90;;;2.42;73.11;96393.00;2331301;57;26146;-75
2024/04/03 03:53:32;;;;;;;0.57;0.53;;;2.50;99.90;;;2.54;75.08;96399.00;2331011;57;26161;-74
2024/04/03 03:56:08;;;;;;;1.63;0.20;;;2.60;99.90;;;2.52;76.47;96396.00;2330880;57;26151;-75
2024/04/03 03:58:35;;;;;;;0.43;0.43;;;2.70;99.90;;;2.58;76.11;96387.00;2331023;57;26118;-74
2024/04/03 04:01:05;;;;;;;0.53;0.20;;;2.80;99.90;;;2.72;76.29;96389.00;2330953;57;26198;-79
2024/04/03 04:03:32;;;;;;;0.27;0.27;;;3.00;99.90;;;3.08;75.29;96392.00;2331487;57;26534;-77
2024/04/03 04:05:59;;;;;;;0.23;0.23;;;2.90;99.90;;;3.08;73.58;96390.00;2331348;57;26624;-79
2024/04/03 04:08:26;;;;;;;0.40;0.40;;;2.70;99.90;;;2.84;73.38;96389.00;2331334;57;26126;-78
2024/04/03 04:10:54;;;;;;;1.70;0.30;;;2.80;99.90;;;2.89;74.02;96390.00;2331520;57;26063;-77
2024/04/03 04:13:21;;;;;;;0.40;0.40;;;2.80;99.90;;;2.83;74.27;96387.00;2330599;57;26162;-78
2024/04/03 04:15:48;;;;;;;1.23;0.60;;;2.90;99.90;;;3.12;74.88;96384.00;2331868;57;26182;-78
2024/04/03 04:18:14;;;;;;;0.30;0.30;;;3.30;99.90;;;3.43;74.91;96392.00;2331138;57;26684;-77
2024/04/03 04:20:42;;;;;;;0.23;0.23;;;3.10;99.90;;;3.20;71.88;96389.00;2330448;57;26210;-76
2024/04/03 04:23:09;;;;;;;0.60;0.40;;;2.90;99.90;;;3.07;72.88;96392.00;2331571;57;26138;-79
2024/04/03 04:25:36;;;;;;;0.77;0.50;;;2.80;99.90;;;2.87;72.19;96392.00;2330055;57;26672;-78
2024/04/03 04:28:03;;;;;;;0.10;0.10;;;2.80;99.90;;;2.97;71.64;96388.00;2330543;57;26139;-77
2024/04/03 04:30:30;;;;;;;5.80;0.63;;;2.70;99.90;;;2.66;74.07;96386.00;2330245;57;26539;-77
2024/04/03 04:32:56;;;;;;;0.27;0.27;;;2.90;99.90;;;2.96;74.41;96385.00;2330147;57;26683;-77
2024/04/03 04:35:23;;;;;;;2.83;0.87;;;2.90;99.90;;;3.03;73.78;96388.00;2331398;57;26687;-77
2024/04/03 04:37:49;;;;;;;0.37;0.37;;;2.70;99.90;;;3.01;72.88;96387.00;2329257;57;26103;-77
2024/04/03 04:40:16;;;;;;;1.47;0.27;;;2.70;99.90;;;2.74;73.70;96394.00;2329365;57;26609;-77
2024/04/03 04:42:45;;;;;;;1.77;0.70;;;2.80;99.90;;;2.95;74.82;96391.00;2327974;57;26094;-76
2024/04/03 04:45:12;;;;;;;1.47;0.30;;;3.00;99.90;;;3.16;74.57;96393.00;2330401;57;26170;-79
2024/04/03 04:47:39;;;;;;;1.50;0.83;;;3.10;99.90;;;3.24;74.40;96390.00;2329977;57;26747;-77
2024/04/03 04:50:09;;;;;;;2.00;1.10;;;3.20;99.90;;;3.32;74.32;96391.00;2330158;57;26540;-78
2024/04/03 04:52:36;;;;;;;4.97;1.53;;;3.40;99.90;;;3.46;73.99;96383.00;2329732;57;26609;-77
2024/04/03 04:55:03;;;;;;;0.73;0.40;;;3.50;99.90;;;3.60;73.84;96383.00;2329771;57;26099;-77
2024/04/03 04:57:29;;;;;;;0.47;0.47;;;3.30;99.90;;;3.56;72.22;96386.00;2329974;57;26190;-78
2024/04/03 04:59:56;;;;;;;0.80;0.80;;;3.10;99.90;;;3.32;73.23;96383.00;2330417;57;26514;-79
2024/04/03 05:02:22;;;;;;;1.97;0.80;;;3.20;99.90;;;3.26;74.15;96388.00;2329069;57;26135;-79
2024/04/03 05:04:49;;;;;;;5.07;1.07;;;3.40;99.90;;;3.57;74.19;96392.00;2330079;57;27061;-77
2024/04/03 05:07:17;;;;;;;2.43;1.10;;;3.60;99.90;;;3.84;73.38;96383.00;2328986;57;26090;-78
2024/04/03 05:09:45;;;;;;;0.50;0.50;;;3.90;99.90;;;4.01;73.26;96384.00;2328979;57;26165;-76
2024/04/03 05:12:15;;;;;;;0.47;0.27;;;3.90;99.90;;;4.09;71.60;96388.00;2329872;57;26083;-76
2024/04/03 05:14:41;;;;;;;0.83;0.63;;;3.70;99.90;;;3.79;70.55;96387.00;2328957;57;26667;-77
2024/04/03 05:17:08;;;;;;;0.30;0.30;;;3.40;99.90;;;3.67;71.55;96388.00;2329182;57;26632;-77
2024/04/03 05:19:36;;;;;;;0.30;0.30;;;3.50;99.90;;;3.61;72.38;96403.00;2328144;57;26151;-77
2024/04/03 05:22:05;;;;;;;1.37;0.60;;;3.50;99.90;;;3.63;72.59;96399.00;2329106;57;26079;-74
2024/04/03 05:24:31;;;;;;;0.73;0.40;;;3.60;99.90;;;3.77;73.34;96401.00;2329047;57;26214;-75
2024/04/03 05:26:58;;;;;;;0.50;0.50;;;3.90;99.90;;;4.22;72.93;96409.00;2328573;57;26598;-75
2024/04/03 05:29:24;;;;;;;4.33;0.50;;;4.10;99.90;;;4.35;73.26;96412.00;2328487;57;26075;-77
2024/04/03 05:31:51;;;;;;;0.87;0.60;;;4.20;99.90;;;4.50;73.09;96414.00;2329638;57;26713;-75
2024/04/03 05:34:18;;;;;;;1.03;0.47;;;4.30;99.90;;;4.63;73.00;96419.00;2329306;57;26115;-76
2024/04/03 05:36:45;;;;;;;0.40;0.40;;;4.40;99.90;;;4.75;72.60;96415.00;2328864;57;26373;-76
2024/04/03 05:39:11;;;;;;;0.50;0.50;;;4.50;99.90;;;4.64;72.55;96421.00;2329601;57;26589;-75
2024/04/03 05:41:38;;;;;;;0.73;0.37;;;4.50;99.90;;;4.75;72.62;96418.00;2328576;57;26594;-78
2024/04/03 05:44:04;;;;;;;1.90;0.40;;;4.60;99.90;;;5.03;72.32;96415.00;2328309;57;26964;-77
2024/04/03 05:46:31;;;;;;;0.30;0.30;;;4.80;99.90;;;5.13;72.30;96411.00;2328842;57;26305;-76
2024/04/03 05:48:57;;;;;;;0.40;0.40;;;4.80;99.90;;;5.10;71.66;96404.00;2328513;57;26659;-75
2024/04/03 05:51:24;;;;;;;1.33;0.53;;;4.90;99.90;;;5.14;71.44;96403.00;2328286;57;27179;-76
2024/04/03 05:53:51;;;;;;;0.30;0.30;;;5.10;99.90;;;5.52;71.06;96410.00;2328497;57;26669;-75
2024/04/03 05:56:17;;;;;;;1.50;0.50;;;5.30;99.90;;;5.72;70.71;96402.00;2328372;57;26147;-76
2024/04/03 05:58:44;;;;;;;0.27;0.27;;;5.50;99.90;;;5.89;70.75;96401.00;2329703;57;26447;-76
2024/04/03 06:01:11;;;;;;;0.50;0.50;;;5.70;99.90;;;6.13;70.27;96406.00;2329291;57;26103;-75
2024/04/03 06:03:37;;;;;;;2.67;0.60;;;5.90;99.90;;;6.26;69.24;96409.00;2329511;57;26138;-78
2024/04/03 06:06:04;;;;;;;0.40;0.40;;;6.10;99.90;;;6.51;69.00;96401.00;2328938;57;26238;-78
2024/04/03 06:08:31;;;;;;;2.43;0.50;;;6.20;99.90;;;6.70;68.68;96395.00;2328987;57;26524;-76
2024/04/03 06:10:57;;;;;;;0.60;0.53;;;6.40;99.90;;;6.91;68.46;96401.00;2330079;57;26150;-78
2024/04/03 06:13:24;;;;;;;0.70;0.60;;;6.60;99.90;;;7.07;67.33;96403.00;2329231;57;26095;-76
2024/04/03 06:15:50;;;;;;;1.27;0.50;;;6.80;99.90;;;7.37;67.17;96400.00;2327980;57;26139;-76
2024/04/03 06:18:17;;;;;;;2.67;0.77;;;6.90;99.90;;;7.31;67.59;96401.00;2326180;57;27042;-78
2024/04/03 06:20:43;;;;;;;1.00;0.70;;;6.80;99.90;;;7.21;68.50;96402.00;2326612;57;26690;-79
2024/04/03 06:23:10;;;;;;;13.07;0.90;;;7.00;99.90;;;7.47;66.71;96401.00;2327502;57;26206;-77
2024/04/03 06:25:37;;;;;;;11.47;1.00;;;7.20;99.90;;;7.67;65.82;96391.00;2327956;57;26636;-76
2024/04/03 06:28:07;;;;;;;3.70;0.90;;;7.30;99.90;;;8.01;64.84;96391.00;2329047;57;26158;-78
2024/04/03 06:30:33;;;;;;;2.37;1.10;;;7.60;99.90;;;8.20;63.92;96386.00;2329507;57;26613;-76
2024/04/03 06:33:00;;;;;;;0.57;0.50;;;7.90;99.90;;;8.46;63.20;96383.00;2328218;57;26697;-78
2024/04/03 06:35:27;;;;;;;4.07;1.10;;;8.10;99.90;;;8.66;62.78;96383.00;2328812;57;26119;-77
2024/04/03 06:37:54;;;;;;;1.90;0.80;;;8.20;99.90;;;8.95;62.83;96389.00;2329751;57;26070;-78
2024/04/03 06:40:20;;;;;;;5.17;0.97;;;8.40;99.90;;;9.06;63.61;96382.00;2328904;57;26605;-78
2024/04/03 06:42:47;;;;;;;0.50;0.33;;;8.60;99.90;;;9.41;63.55;96384.00;2328957;57;26905;-76
2024/04/03 06:45:14;;;;;;;1.33;0.60;;;8.80;99.90;;;9.39;63.72;96380.00;2329906;57;26122;-78
2024/04/03 06:47:40;;;;;;;0.90;0.77;;;8.90;99.90;;;9.59;62.50;96384.00;2328475;57;26797;-77
2024/04/03 06:50:07;;;;;;;4.17;0.70;;;8.90;99.90;;;9.70;60.36;96380.00;2328931;57;26099;-78
2024/04/03 06:52:34;;;;;;;1.80;0.70;;;9.10;99.90;;;9.67;60.85;96386.00;2328910;57;26150;-76
2024/04/03 06:55:00;;;;;;;1.80;0.70;;;9.30;99.90;;;10.00;60.79;96388.00;2162634;57;10000100;-78
2024/04/03 06:57:27;;;;;;;0.60;0.57;;;9.50;99.90;;;10.22;58.72;96382.00;2329092;57;26151;-77
2024/04/03 06:59:54;;;;;;;1.67;0.83;;;9.70;99.90;;;10.46;57.38;96376.00;2329689;57;26521;-78
2024/04/03 07:02:21;;;;;;;0.60;0.60;;;9.90;99.90;;;10.73;57.32;96368.00;2326159;57;26925;-78
2024/04/03 07:04:48;;;;;;;1.00;0.60;;;10.00;99.90;;;10.87;58.37;96369.00;2328579;57;26432;-75
2024/04/03 07:07:20;;;;;;;3.87;1.00;;;10.30;99.90;;;11.20;57.17;96366.00;2328342;57;26130;-77
2024/04/03 07:09:46;;;;;;;1.60;0.90;;;10.40;99.90;;;11.42;57.47;96374.00;2327727;57;26091;-78
2024/04/03 07:12:13;;;;;;;1.83;1.10;;;10.70;99.90;;;11.61;56.23;96369.00;2326643;57;26131;-78
2024/04/03 07:14:40;;;;;;;2.23;1.07;;;10.90;99.90;;;11.89;56.71;96363.00;2327534;57;26182;-77
2024/04/03 07:17:07;;;;;;;2.70;0.90;;;11.10;99.60;;;11.95;55.67;96361.00;2328375;57;26154;-76
2024/04/03 07:19:33;;;;;;;7.93;1.10;;;11.10;98.80;;;12.06;54.42;96357.00;2328288;57;26448;-79
2024/04/03 07:22:00;;;;;;;1.07;0.80;;;11.30;98.80;;;12.35;54.18;96361.00;2328639;57;26111;-77
2024/04/03 07:24:27;;;;;;;3.60;0.80;;;11.50;98.90;;;12.52;54.50;96358.00;2328329;57;26107;-78
2024/04/03 07:26:53;;;;;;;1.33;1.00;;;11.70;98.40;;;12.79;53.54;96366.00;2328496;57;26213;-77
2024/04/03 07:29:20;;;;;;;9.33;1.40;;;11.80;98.80;;;12.90;54.21;96372.00;2328376;57;26083;-78
2024/04/03 07:31:47;;;;;;;1.03;0.90;;;12.00;98.60;;;13.05;53.82;96359.00;2328587;57;26086;-76
2024/04/03 07:34:14;;;;;;;4.07;1.10;;;12.20;98.80;;;13.26;54.09;96367.00;2327579;57;26517;-79
2024/04/03 07:36:43;;;;;;;1.47;0.80;;;12.30;97.20;;;13.46;51.48;96360.00;2326793;57;26613;-77
2024/04/03 07:39:10;;;;;;;3.43;1.57;;;12.50;96.90;;;13.72;50.88;96352.00;2327123;57;26618;-76
2024/04/03 07:41:40;;;;;;;2.43;1.20;;;12.80;96.90;;;14.14;50.49;96349.00;2328506;57;26146;-76
2024/04/03 07:44:06;;;;;;;4.77;1.10;;;13.00;96.10;;;14.30;49.41;96348.00;2329564;57;26410;-78
2024/04/03 07:46:33;;;;;;;3.07;1.97;;;13.40;96.10;;;14.59;49.60;96340.00;2328704;57;26173;-78
2024/04/03 07:49:01;;;;;;;11.13;2.03;;;13.60;95.50;;;14.77;48.75;96342.00;2328592;57;26170;-79
2024/04/03 07:51:27;;;;;;;6.97;1.20;;;13.70;94.50;;;14.86;47.30;96328.00;2328714;57;26514;-75
2024/04/03 07:53:54;;;;;;;5.80;1.63;;;13.90;95.50;;;15.17;48.49;96328.00;2328926;57;26214;-79
2024/04/03 07:56:20;;;;;;;0.83;0.80;;;14.10;95.20;;;15.41;47.92;96328.00;2328175;57;26237;-75
2024/04/03 07:58:47;;;;;;;2.23;1.17;;;14.20;94.80;;;15.33;47.95;96323.00;2328499;57;26083;-77
2024/04/03 08:01:13;;;;;;;1.40;0.90;;;14.30;94.50;;;15.47;47.41;96324.00;2327523;57;26601;-78
2024/04/03 08:03:40;;;;;;;8.20;1.50;;;14.50;94.40;;;15.70;47.14;96323.00;2326839;57;26639;-77
2024/04/03 08:06:07;;;;;;;11.50;1.80;;;14.50;94.30;;;15.54;47.30;96327.00;2327090;57;26488;-78
2024/04/03 08:08:33;;;;;;;4.47;1.80;;;14.40;94.20;;;15.47;47.15;96327.00;2328412;57;26123;-77
2024/04/03 08:11:04;;;;;;;1.73;1.20;;;14.40;94.80;;;15.45;48.31;96332.00;2327719;57;26126;-77
2024/04/03 08:13:31;;;;;;;4.12;1.20;;;14.40;94.70;;;15.52;48.27;96326.00;2327354;57;26144;-77
2024/04/03 08:16:04;;;;;;;4.77;0.90;;;14.50;95.00;;;15.46;49.13;96325.00;2328311;57;26829;-78
2024/04/03 08:18:32;;;;;;;1.97;0.90;;;14.60;94.70;;;15.73;48.04;96319.00;2328845;57;26600;-77
2024/04/03 08:21:06;;;;;;;1.70;1.20;;;14.60;94.30;;;15.79;47.13;96314.00;2327291;57;26547;-76
2024/04/03 08:23:33;;;;;;;2.45;0.98;;;14.80;94.10;;;16.03;46.95;96312.00;2329057;57;26234;-77
2024/04/03 08:26:10;;;;;;;1.33;1.12;;;14.90;94.00;;;16.01;46.75;96301.00;2329297;57;26194;-77
2024/04/03 08:28:41;;;;;;;4.20;0.90;;;15.00;94.40;;;16.19;47.58;96308.00;2329250;57;26126;-77
2024/04/03 08:31:15;;;;;;;5.25;0.90;;;15.10;94.10;;;16.30;47.16;96295.00;2329442;57;26147;-76
2024/04/03 08:33:42;;;;;;;2.67;1.12;;;15.30;93.50;;;16.51;46.17;96305.00;2330238;57;26520;-77
2024/04/03 08:36:10;;;;;;;0.80;0.80;;;15.50;93.60;;;16.72;46.14;96305.00;2329458;57;26103;-76
2024/04/03 08:38:37;;;;;;;1.87;0.80;;;15.50;93.50;;;16.70;46.14;96299.00;2329409;57;26094;-79
2024/04/03 08:41:04;;;;;;;1.37;0.70;;;15.60;93.00;;;16.74;45.57;96301.00;2329432;57;26103;-76
2024/04/03 08:43:33;;;;;;;3.05;0.85;;;15.60;93.10;;;16.77;45.82;96295.00;2327533;57;26838;-79
2024/04/03 08:46:02;;;;;;;1.60;0.70;;;15.60;93.60;;;16.83;46.65;96301.00;2328818;57;26197;-77
2024/04/03 08:48:29;;;;;;;1.08;0.62;;;15.80;92.60;;;17.18;44.47;96293.00;2328323;57;26123;-77
2024/04/03 08:50:57;;;;;;;0.90;0.65;;;15.90;91.90;;;17.38;43.24;96291.00;2328895;57;26596;-77
2024/04/03 08:53:24;;;;;;;1.15;0.70;;;16.00;92.40;;;17.33;44.43;96280.00;2329080;57;26181;-76
2024/04/03 08:55:55;;;;;;;3.87;1.27;;;16.00;92.40;;;17.26;44.52;96280.00;2329063;57;26601;-79
2024/04/03 08:58:22;;;;;;;2.80;1.00;;;16.10;91.70;;;17.42;43.30;96276.00;2330049;57;26091;-76
2024/04/03 09:00:52;;;;;;;3.67;0.88;;;16.10;91.30;;;17.38;42.93;96274.00;2329022;57;26174;-79
2024/04/03 09:03:19;;;;;;;3.83;0.70;;;16.10;92.20;;;17.40;44.33;96280.00;2329239;57;26753;-79
2024/04/03 09:05:47;;;;;;;2.50;0.95;;;16.20;92.20;;;17.51;44.08;96280.00;2330041;57;26187;-78
2024/04/03 09:08:13;;;;;;;0.80;0.80;;;16.50;92.20;;;17.88;43.99;96278.00;2328973;57;26660;-78
2024/04/03 09:10:49;;;;;;;1.33;0.62;;;16.50;91.70;;;17.89;43.37;96279.00;2328802;57;26245;-78
2024/04/03 09:13:17;;;;;;;1.92;0.82;;;16.50;91.20;;;17.76;42.80;96278.00;2329936;57;26103;-76
2024/04/03 09:15:43;;;;;;;0.60;0.55;;;16.60;91.50;;;17.90;43.37;96262.00;2330033;57;26640;-77
2024/04/03 09:18:10;;;;;;;1.25;0.60;;;16.80;91.00;;;18.12;42.41;96262.00;2329301;57;26075;-77
2024/04/03 09:20:41;;;;;;;1.05;0.60;;;17.00;89.20;;;18.42;40.07;96260.00;2329032;57;26103;-77
2024/04/03 09:23:09;;;;;;;1.52;0.80;;;17.20;89.90;;;18.59;40.55;96256.00;2328589;57;26553;-76
2024/04/03 09:25:39;;;;;;;3.08;0.70;;;17.20;88.80;;;18.72;40.01;96248.00;2329993;57;26149;-79
2024/04/03 09:28:08;;;;;;;3.08;0.98;;;17.20;90.10;;;18.50;41.13;96258.00;2328527;57;26748;-77
2024/04/03 09:30:45;;;;;;;0.80;0.73;;;17.10;90.30;;;18.58;41.39;96259.00;2329407;57;26107;-76
2024/04/03 09:33:13;;;;;;;2.45;0.90;;;17.30;87.80;;;18.76;39.51;96255.00;2329151;57;26260;-76
2024/04/03 09:35:42;;;;;;;1.37;0.80;;;17.30;86.40;;;18.73;38.67;96250.00;2330134;57;26209;-77
2024/04/03 09:38:14;;;;;;;1.15;0.93;;;17.40;87.40;;;18.79;39.30;96243.00;2329233;57;26555;-78
2024/04/03 09:40:41;;;;;;;0.70;0.50;;;17.50;88.30;;;18.95;39.58;96244.00;2328915;57;26178;-77
2024/04/03 09:43:12;;;;;;;1.65;0.55;;;17.40;88.20;;;18.82;40.00;96237.00;2329041;57;26625;-79
2024/04/03 09:45:39;;;;;;;0.90;0.70;;;17.30;87.60;;;18.88;39.27;96239.00;2329126;57;26258;-76
2024/04/03 09:48:11;;;;;;;1.15;0.70;;;17.30;87.90;;;18.71;39.89;96233.00;2327797;57;26730;-79
2024/04/03 09:50:43;;;;;;;3.97;0.70;;;17.50;87.90;;;18.92;39.89;96225.00;2328548;57;26141;-78
2024/04/03 09:53:21;;;;;;;0.70;0.40;;;17.80;88.20;;;19.29;39.77;96217.00;2328798;57;26178;-76
2024/04/03 09:55:52;;;;;;;0.37;0.37;;;17.90;86.90;;;19.26;39.13;96217.00;2328632;57;26197;-78
2024/04/03 09:58:21;;;;;;;1.20;0.70;;;17.80;88.30;;;19.50;39.90;96219.00;2328880;57;26134;-78
2024/04/03 10:00:54;;;;;;;0.60;0.60;;;17.70;87.90;;;19.22;39.80;96216.00;2328482;57;26139;-77
2024/04/03 10:03:38;;;;;;;0.95;0.73;;;17.60;89.30;;;18.99;40.95;96210.00;2329068;57;27279;-77
2024/04/03 10:06:12;;;;;;;2.22;0.80;;;17.70;88.60;;;19.19;40.29;96209.00;2328087;57;26201;-78
2024/04/03 10:08:44;;;;;;;4.93;0.75;;;17.80;88.30;;;19.20;40.51;96205.00;2328550;57;26602;-76
2024/04/03 10:11:15;;;;;;;2.70;0.90;;;17.60;88.20;;;19.05;40.25;96195.00;2327230;57;26142;-77
2024/04/03 10:13:47;;;;;;;1.52;0.80;;;17.60;88.80;;;19.05;40.72;96197.00;2327172;57;26127;-76
2024/04/03 10:16:15;;;;;;;1.60;0.60;;;17.60;87.80;;;19.13;40.05;96194.00;2326884;57;26235;-77
2024/04/03 10:18:51;;;;;;;0.68;0.60;;;17.60;87.40;;;19.13;39.82;96194.00;2327383;57;26134;-78
2024/04/03 10:21:20;;;;;;;0.70;0.70;;;17.70;87.20;;;19.35;39.35;96194.00;2329012;57;26150;-77
2024/04/03 10:23:51;;;;;;;1.30;0.57;;;17.70;86.10;;;19.25;38.84;96188.00;2329181;57;26123;-76
2024/04/03 10:26:20;;;;;;;1.30;0.85;;;17.80;86.30;;;19.22;38.97;96184.00;2327958;57;26519;-76
2024/04/03 10:28:47;;;;;;;0.75;0.70;;;17.70;82.60;;;18.93;37.46;96184.00;2327090;57;26076;-75
2024/04/03 10:31:19;;;;;;;1.23;0.70;;;17.80;82.50;;;18.98;37.18;96182.00;2327806;57;26396;-76
2024/04/03 10:33:49;;;;;;;2.15;0.80;;;17.80;81.30;;;19.00;36.59;96180.00;2328063;57;26185;-75